MMRX

General Lucio Blanco International Airport

Airport
ICAO code
MMRX
IATA Code
REX
Summary
ICAO Region
CARSAM
ICAO Territory
Location

Reynosa, Tamaulipas

Serving
Reynosa
Elevation
139 ft
Coordinates
26° 0' 32" N , 98° 13' 43" W
KCC
Metar
MMRX 221841Z 19010G20KT 5SM FEW210 35/22 A2975 RMK 8/001 HZY

General Lucio Blanco International Airport is an international airport located in Reynosa, Tamaulipas, Mexico, near the Mexico–United States border.

Climatology

Warm Semi-arid climate (Köppen climate classification BSh)

Runways

Designator Length Width Surface Rops
13/31 1903 45 ASP Yes/Yes

Airport map

Aerial View

SKYbrary Partners:

Safety knowledge contributed by: